sensor_id;sensor_type;location;lat;lon;timestamp;pressure;altitude;pressure_sealevel;temperature;humidity
70407;BME280;57821;52.202;0.154;2023-05-07T00:00:59;101383.66;;;13.67;100.00
70407;BME280;57821;52.202;0.154;2023-05-07T00:03:27;101376.69;;;13.65;100.00
70407;BME280;57821;52.202;0.154;2023-05-07T00:05:54;101384.50;;;13.66;100.00
70407;BME280;57821;52.202;0.154;2023-05-07T00:08:20;101381.06;;;13.61;100.00
70407;BME280;57821;52.202;0.154;2023-05-07T00:10:47;101385.38;;;13.64;100.00
70407;BME280;57821;52.202;0.154;2023-05-07T00:13:14;101393.22;;;13.62;100.00
70407;BME280;57821;52.202;0.154;2023-05-07T00:15:41;101386.28;;;13.58;100.00
70407;BME280;57821;52.202;0.154;2023-05-07T00:18:07;101393.28;;;13.54;100.00
70407;BME280;57821;52.202;0.154;2023-05-07T00:20:34;101388.91;;;13.60;100.00
70407;BME280;57821;52.202;0.154;2023-05-07T00:23:01;101400.19;;;13.60;100.00
70407;BME280;57821;52.202;0.154;2023-05-07T00:25:28;101388.03;;;13.57;100.00
70407;BME280;57821;52.202;0.154;2023-05-07T00:27:55;101387.16;;;13.57;100.00
70407;BME280;57821;52.202;0.154;2023-05-07T00:30:22;101386.28;;;13.61;100.00
70407;BME280;57821;52.202;0.154;2023-05-07T00:32:48;101390.63;;;13.57;100.00
70407;BME280;57821;52.202;0.154;2023-05-07T00:35:15;101396.72;;;13.58;100.00
70407;BME280;57821;52.202;0.154;2023-05-07T00:37:41;101394.13;;;13.53;100.00
70407;BME280;57821;52.202;0.154;2023-05-07T00:40:08;101395.88;;;13.54;100.00
70407;BME280;57821;52.202;0.154;2023-05-07T00:42:35;101398.47;;;13.53;100.00
70407;BME280;57821;52.202;0.154;2023-05-07T00:45:02;101381.19;;;13.41;100.00
70407;BME280;57821;52.202;0.154;2023-05-07T00:47:30;101405.47;;;13.48;100.00
70407;BME280;57821;52.202;0.154;2023-05-07T00:49:57;101392.44;;;13.46;100.00
70407;BME280;57821;52.202;0.154;2023-05-07T00:52:25;101394.19;;;13.44;100.00
70407;BME280;57821;52.202;0.154;2023-05-07T00:54:52;101391.59;;;13.43;100.00
70407;BME280;57821;52.202;0.154;2023-05-07T00:57:19;101394.19;;;13.43;100.00
70407;BME280;57821;52.202;0.154;2023-05-07T00:59:46;101403.75;;;13.44;100.00
70407;BME280;57821;52.202;0.154;2023-05-07T01:02:13;101400.28;;;13.42;100.00
70407;BME280;57821;52.202;0.154;2023-05-07T01:04:40;101391.63;;;13.34;100.00
70407;BME280;57821;52.202;0.154;2023-05-07T01:07:07;101392.50;;;13.36;100.00
70407;BME280;57821;52.202;0.154;2023-05-07T01:09:35;101389.91;;;13.30;100.00
70407;BME280;57821;52.202;0.154;2023-05-07T01:12:03;101393.44;;;13.27;100.00
70407;BME280;57821;52.202;0.154;2023-05-07T01:14:29;101395.16;;;13.24;100.00
70407;BME280;57821;52.202;0.154;2023-05-07T01:16:56;101397.78;;;13.21;100.00
70407;BME280;57821;52.202;0.154;2023-05-07T01:19:24;101397.78;;;13.19;100.00
70407;BME280;57821;52.202;0.154;2023-05-07T01:21:51;101398.66;;;13.16;100.00
70407;BME280;57821;52.202;0.154;2023-05-07T01:24:19;101397.81;;;13.16;100.00
70407;BME280;57821;52.202;0.154;2023-05-07T01:26:46;101400.41;;;13.14;100.00
70407;BME280;57821;52.202;0.154;2023-05-07T01:29:15;101399.56;;;13.15;100.00
70407;BME280;57821;52.202;0.154;2023-05-07T01:31:44;101403.88;;;13.13;100.00
70407;BME280;57821;52.202;0.154;2023-05-07T01:34:11;101406.50;;;13.13;100.00
70407;BME280;57821;52.202;0.154;2023-05-07T01:36:39;101409.97;;;13.15;100.00
70407;BME280;57821;52.202;0.154;2023-05-07T01:39:08;101402.16;;;13.14;100.00
70407;BME280;57821;52.202;0.154;2023-05-07T01:41:35;101398.66;;;13.07;100.00
70407;BME280;57821;52.202;0.154;2023-05-07T01:44:03;101410.78;;;13.11;100.00
70407;BME280;57821;52.202;0.154;2023-05-07T01:46:31;101402.13;;;13.06;100.00
70407;BME280;57821;52.202;0.154;2023-05-07T01:48:58;101397.81;;;13.04;100.00
70407;BME280;57821;52.202;0.154;2023-05-07T01:51:25;101409.97;;;13.03;100.00
70407;BME280;57821;52.202;0.154;2023-05-07T01:53:52;101407.38;;;13.00;100.00
70407;BME280;57821;52.202;0.154;2023-05-07T01:56:20;101412.56;;;12.99;100.00
70407;BME280;57821;52.202;0.154;2023-05-07T01:58:47;101418.66;;;13.02;100.00
70407;BME280;57821;52.202;0.154;2023-05-07T02:01:14;101423.00;;;13.03;100.00
70407;BME280;57821;52.202;0.154;2023-05-07T02:03:42;101422.97;;;13.00;100.00
70407;BME280;57821;52.202;0.154;2023-05-07T02:06:17;101429.94;;;13.01;100.00
70407;BME280;57821;52.202;0.154;2023-05-07T02:08:44;101429.06;;;12.99;100.00
70407;BME280;57821;52.202;0.154;2023-05-07T02:11:12;101429.94;;;13.01;100.00
70407;BME280;57821;52.202;0.154;2023-05-07T02:13:39;101419.56;;;12.92;100.00
70407;BME280;57821;52.202;0.154;2023-05-07T02:16:06;101430.78;;;13.02;100.00
70407;BME280;57821;52.202;0.154;2023-05-07T02:18:33;101420.41;;;12.96;100.00
70407;BME280;57821;52.202;0.154;2023-05-07T02:21:00;101423.88;;;12.98;100.00
70407;BME280;57821;52.202;0.154;2023-05-07T02:23:26;101423.00;;;12.97;100.00
70407;BME280;57821;52.202;0.154;2023-05-07T02:25:53;101416.94;;;12.92;100.00
70407;BME280;57821;52.202;0.154;2023-05-07T02:28:19;101421.28;;;12.90;100.00
70407;BME280;57821;52.202;0.154;2023-05-07T02:31:04;101426.47;;;12.93;100.00
70407;BME280;57821;52.202;0.154;2023-05-07T02:33:31;101423.03;;;12.90;100.00
70407;BME280;57821;52.202;0.154;2023-05-07T02:36:11;101427.34;;;12.94;100.00
70407;BME280;57821;52.202;0.154;2023-05-07T02:38:50;101419.56;;;12.85;100.00
70407;BME280;57821;52.202;0.154;2023-05-07T02:41:17;101433.44;;;12.88;100.00
70407;BME280;57821;52.202;0.154;2023-05-07T02:43:43;101425.66;;;12.87;100.00
70407;BME280;57821;52.202;0.154;2023-05-07T02:46:10;101433.44;;;12.88;100.00
70407;BME280;57821;52.202;0.154;2023-05-07T02:48:41;101430.84;;;12.87;100.00
70407;BME280;57821;52.202;0.154;2023-05-07T02:51:08;101429.13;;;12.81;100.00
70407;BME280;57821;52.202;0.154;2023-05-07T02:53:37;101426.50;;;12.84;100.00
70407;BME280;57821;52.202;0.154;2023-05-07T02:56:04;101436.06;;;12.87;100.00
70407;BME280;57821;52.202;0.154;2023-05-07T02:58:31;101423.91;;;12.83;100.00
70407;BME280;57821;52.202;0.154;2023-05-07T03:00:59;101441.25;;;12.85;100.00
70407;BME280;57821;52.202;0.154;2023-05-07T03:03:39;101433.44;;;12.84;100.00
70407;BME280;57821;52.202;0.154;2023-05-07T03:06:06;101431.72;;;12.81;100.00
70407;BME280;57821;52.202;0.154;2023-05-07T03:08:33;101424.78;;;12.77;100.00
70407;BME280;57821;52.202;0.154;2023-05-07T03:10:59;101437.78;;;12.85;100.00
70407;BME280;57821;52.202;0.154;2023-05-07T03:13:26;101422.19;;;12.72;100.00
70407;BME280;57821;52.202;0.154;2023-05-07T03:15:53;101438.66;;;12.84;100.00
70407;BME280;57821;52.202;0.154;2023-05-07T03:18:20;101448.19;;;12.86;100.00
70407;BME280;57821;52.202;0.154;2023-05-07T03:20:48;101449.06;;;12.85;100.00
70407;BME280;57821;52.202;0.154;2023-05-07T03:23:16;101440.38;;;12.83;100.00
70407;BME280;57821;52.202;0.154;2023-05-07T03:25:42;101438.66;;;12.76;100.00
70407;BME280;57821;52.202;0.154;2023-05-07T03:28:09;101456.00;;;12.83;100.00
70407;BME280;57821;52.202;0.154;2023-05-07T03:30:42;101432.59;;;12.74;100.00
70407;BME280;57821;52.202;0.154;2023-05-07T03:33:08;101440.41;;;12.77;100.00
70407;BME280;57821;52.202;0.154;2023-05-07T03:35:36;101449.06;;;12.82;100.00
70407;BME280;57821;52.202;0.154;2023-05-07T03:38:02;101439.53;;;12.81;100.00
70407;BME280;57821;52.202;0.154;2023-05-07T03:40:32;101447.34;;;12.81;100.00
70407;BME280;57821;52.202;0.154;2023-05-07T03:43:00;101447.34;;;12.78;100.00
70407;BME280;57821;52.202;0.154;2023-05-07T03:45:29;101449.06;;;12.82;100.00
70407;BME280;57821;52.202;0.154;2023-05-07T03:48:05;101458.59;;;12.83;100.00
70407;BME280;57821;52.202;0.154;2023-05-07T03:50:32;101453.38;;;12.82;100.00
70407;BME280;57821;52.202;0.154;2023-05-07T03:52:59;101454.25;;;12.82;100.00
70407;BME280;57821;52.202;0.154;2023-05-07T03:55:27;101456.00;;;12.83;100.00
70407;BME280;57821;52.202;0.154;2023-05-07T03:57:57;101446.47;;;12.81;100.00
70407;BME280;57821;52.202;0.154;2023-05-07T04:00:26;101452.56;;;12.81;100.00
70407;BME280;57821;52.202;0.154;2023-05-07T04:02:57;101456.03;;;12.80;100.00
70407;BME280;57821;52.202;0.154;2023-05-07T04:05:26;101462.97;;;12.81;100.00
70407;BME280;57821;52.202;0.154;2023-05-07T04:07:58;101460.34;;;12.78;100.00
70407;BME280;57821;52.202;0.154;2023-05-07T04:10:31;101464.69;;;12.76;100.00
70407;BME280;57821;52.202;0.154;2023-05-07T04:13:02;101455.16;;;12.70;100.00
70407;BME280;57821;52.202;0.154;2023-05-07T04:15:29;101466.41;;;12.71;100.00
70407;BME280;57821;52.202;0.154;2023-05-07T04:17:56;101465.56;;;12.69;100.00
70407;BME280;57821;52.202;0.154;2023-05-07T04:20:24;101473.38;;;12.69;100.00
70407;BME280;57821;52.202;0.154;2023-05-07T04:22:57;101475.97;;;12.66;100.00
70407;BME280;57821;52.202;0.154;2023-05-07T04:25:24;101484.66;;;12.66;100.00
70407;BME280;57821;52.202;0.154;2023-05-07T04:27:52;101475.13;;;12.61;100.00
70407;BME280;57821;52.202;0.154;2023-05-07T04:30:25;101475.09;;;12.64;100.00
70407;BME280;57821;52.202;0.154;2023-05-07T04:32:52;101483.78;;;12.66;100.00
70407;BME280;57821;52.202;0.154;2023-05-07T04:35:20;101476.00;;;12.63;100.00
70407;BME280;57821;52.202;0.154;2023-05-07T04:37:47;101476.84;;;12.63;100.00
70407;BME280;57821;52.202;0.154;2023-05-07T04:40:14;101485.50;;;12.67;100.00
70407;BME280;57821;52.202;0.154;2023-05-07T04:42:42;101482.91;;;12.65;100.00
70407;BME280;57821;52.202;0.154;2023-05-07T04:45:09;101489.84;;;12.68;100.00
70407;BME280;57821;52.202;0.154;2023-05-07T04:47:38;101478.56;;;12.66;100.00
70407;BME280;57821;52.202;0.154;2023-05-07T04:50:06;101489.00;;;12.69;100.00
70407;BME280;57821;52.202;0.154;2023-05-07T04:52:34;101501.13;;;12.73;100.00
70407;BME280;57821;52.202;0.154;2023-05-07T04:55:01;101498.53;;;12.73;100.00
70407;BME280;57821;52.202;0.154;2023-05-07T04:57:33;101501.13;;;12.73;100.00
70407;BME280;57821;52.202;0.154;2023-05-07T05:00:00;101498.50;;;12.76;100.00
70407;BME280;57821;52.202;0.154;2023-05-07T05:02:30;101501.97;;;12.78;100.00
70407;BME280;57821;52.202;0.154;2023-05-07T05:04:58;101494.19;;;12.78;100.00
70407;BME280;57821;52.202;0.154;2023-05-07T05:07:24;101492.44;;;12.77;100.00
70407;BME280;57821;52.202;0.154;2023-05-07T05:09:51;101495.06;;;12.80;100.00
70407;BME280;57821;52.202;0.154;2023-05-07T05:12:18;101500.25;;;12.85;100.00
70407;BME280;57821;52.202;0.154;2023-05-07T05:14:45;101503.69;;;12.82;100.00
70407;BME280;57821;52.202;0.154;2023-05-07T05:17:12;101499.41;;;12.81;100.00
70407;BME280;57821;52.202;0.154;2023-05-07T05:19:38;101508.91;;;12.90;100.00
70407;BME280;57821;52.202;0.154;2023-05-07T05:22:05;101508.91;;;12.88;100.00
70407;BME280;57821;52.202;0.154;2023-05-07T05:24:32;101520.16;;;12.93;100.00
70407;BME280;57821;52.202;0.154;2023-05-07T05:27:00;101506.31;;;12.90;100.00
70407;BME280;57821;52.202;0.154;2023-05-07T05:29:28;101502.84;;;12.91;100.00
70407;BME280;57821;52.202;0.154;2023-05-07T05:31:55;101501.97;;;12.95;100.00
70407;BME280;57821;52.202;0.154;2023-05-07T05:34:22;101508.88;;;13.00;100.00
70407;BME280;57821;52.202;0.154;2023-05-07T05:36:48;101510.63;;;13.00;100.00
70407;BME280;57821;52.202;0.154;2023-05-07T05:39:15;101510.63;;;13.00;100.00
70407;BME280;57821;52.202;0.154;2023-05-07T05:41:42;101512.38;;;13.02;100.00
70407;BME280;57821;52.202;0.154;2023-05-07T05:44:08;101505.44;;;13.04;100.00
70407;BME280;57821;52.202;0.154;2023-05-07T05:46:35;101509.75;;;13.02;100.00
70407;BME280;57821;52.202;0.154;2023-05-07T05:49:02;101521.03;;;13.09;100.00
70407;BME280;57821;52.202;0.154;2023-05-07T05:51:30;101506.28;;;13.06;100.00
70407;BME280;57821;52.202;0.154;2023-05-07T05:53:57;101524.53;;;13.15;100.00
70407;BME280;57821;52.202;0.154;2023-05-07T05:56:24;101515.84;;;13.13;100.00
70407;BME280;57821;52.202;0.154;2023-05-07T05:58:51;101514.97;;;13.21;100.00
70407;BME280;57821;52.202;0.154;2023-05-07T06:01:18;101525.38;;;13.21;100.00
70407;BME280;57821;52.202;0.154;2023-05-07T06:03:48;101522.75;;;13.22;100.00
70407;BME280;57821;52.202;0.154;2023-05-07T06:06:16;101529.72;;;13.28;100.00
70407;BME280;57821;52.202;0.154;2023-05-07T06:08:43;101528.84;;;13.26;100.00
70407;BME280;57821;52.202;0.154;2023-05-07T06:11:12;101527.09;;;13.29;100.00
70407;BME280;57821;52.202;0.154;2023-05-07T06:13:42;101525.38;;;13.27;100.00
70407;BME280;57821;52.202;0.154;2023-05-07T06:16:09;101528.84;;;13.26;100.00
70407;BME280;57821;52.202;0.154;2023-05-07T06:18:36;101528.81;;;13.29;100.00
70407;BME280;57821;52.202;0.154;2023-05-07T06:21:03;101540.09;;;13.37;100.00
70407;BME280;57821;52.202;0.154;2023-05-07T06:23:32;101538.34;;;13.40;100.00
70407;BME280;57821;52.202;0.154;2023-05-07T06:26:00;101530.53;;;13.40;100.00
70407;BME280;57821;52.202;0.154;2023-05-07T06:28:33;101539.16;;;13.53;100.00
70407;BME280;57821;52.202;0.154;2023-05-07T06:31:17;101554.75;;;13.70;100.00
70407;BME280;57821;52.202;0.154;2023-05-07T06:34:01;101558.16;;;13.82;100.00
70407;BME280;57821;52.202;0.154;2023-05-07T06:36:33;101568.53;;;13.94;100.00
70407;BME280;57821;52.202;0.154;2023-05-07T06:39:04;101565.03;;;13.98;100.00
70407;BME280;57821;52.202;0.154;2023-05-07T06:41:31;101560.72;;;13.96;100.00
70407;BME280;57821;52.202;0.154;2023-05-07T06:44:04;101565.88;;;14.05;100.00
70407;BME280;57821;52.202;0.154;2023-05-07T06:46:37;101551.09;;;14.06;100.00
70407;BME280;57821;52.202;0.154;2023-05-07T06:49:05;101566.72;;;14.15;100.00
70407;BME280;57821;52.202;0.154;2023-05-07T06:51:32;101575.34;;;14.23;100.00
70407;BME280;57821;52.202;0.154;2023-05-07T06:54:02;101570.13;;;14.26;100.00
70407;BME280;57821;52.202;0.154;2023-05-07T06:56:29;101567.47;;;14.27;100.00
70407;BME280;57821;52.202;0.154;2023-05-07T06:58:56;101574.41;;;14.33;100.00
70407;BME280;57821;52.202;0.154;2023-05-07T07:01:22;101575.28;;;14.43;100.00
70407;BME280;57821;52.202;0.154;2023-05-07T07:03:49;101574.38;;;14.47;100.00
70407;BME280;57821;52.202;0.154;2023-05-07T07:06:16;101585.59;;;14.56;100.00
70407;BME280;57821;52.202;0.154;2023-05-07T07:08:43;101569.06;;;14.57;100.00
70407;BME280;57821;52.202;0.154;2023-05-07T07:11:12;101570.81;;;14.57;100.00
70407;BME280;57821;52.202;0.154;2023-05-07T07:13:39;101582.06;;;14.63;100.00
70407;BME280;57821;52.202;0.154;2023-05-07T07:16:06;101582.06;;;14.66;100.00
70407;BME280;57821;52.202;0.154;2023-05-07T07:18:35;101563.75;;;14.68;100.00
70407;BME280;57821;52.202;0.154;2023-05-07T07:21:03;101574.16;;;14.74;100.00
70407;BME280;57821;52.202;0.154;2023-05-07T07:23:30;101573.25;;;14.79;100.00
70407;BME280;57821;52.202;0.154;2023-05-07T07:25:56;101575.84;;;14.81;100.00
70407;BME280;57821;52.202;0.154;2023-05-07T07:28:23;101566.28;;;14.82;100.00
70407;BME280;57821;52.202;0.154;2023-05-07T07:30:50;101568.84;;;14.86;100.00
70407;BME280;57821;52.202;0.154;2023-05-07T07:33:17;101576.63;;;14.94;100.00
70407;BME280;57821;52.202;0.154;2023-05-07T07:35:43;101577.38;;;15.05;100.00
70407;BME280;57821;52.202;0.154;2023-05-07T07:38:11;101589.50;;;15.12;100.00
70407;BME280;57821;52.202;0.154;2023-05-07T07:40:37;101586.84;;;15.15;100.00
70407;BME280;57821;52.202;0.154;2023-05-07T07:43:05;101580.75;;;15.16;100.00
70407;BME280;57821;52.202;0.154;2023-05-07T07:45:32;101583.41;;;15.13;100.00
70407;BME280;57821;52.202;0.154;2023-05-07T07:48:00;101590.38;;;15.14;100.00
70407;BME280;57821;52.202;0.154;2023-05-07T07:50:26;101593.00;;;15.11;100.00
70407;BME280;57821;52.202;0.154;2023-05-07T07:53:09;101579.97;;;15.08;100.00
70407;BME280;57821;52.202;0.154;2023-05-07T07:55:39;101592.06;;;15.18;100.00
70407;BME280;57821;52.202;0.154;2023-05-07T07:58:06;101588.59;;;15.19;100.00
70407;BME280;57821;52.202;0.154;2023-05-07T08:00:33;101600.72;;;15.23;100.00
70407;BME280;57821;52.202;0.154;2023-05-07T08:03:00;101606.81;;;15.25;100.00
70407;BME280;57821;52.202;0.154;2023-05-07T08:05:31;101597.25;;;15.24;100.00
70407;BME280;57821;52.202;0.154;2023-05-07T08:07:59;101605.84;;;15.32;100.00
70407;BME280;57821;52.202;0.154;2023-05-07T08:10:30;101609.31;;;15.37;100.00
70407;BME280;57821;52.202;0.154;2023-05-07T08:13:02;101597.94;;;15.38;100.00
70407;BME280;57821;52.202;0.154;2023-05-07T08:15:29;101597.00;;;15.45;100.00
70407;BME280;57821;52.202;0.154;2023-05-07T08:17:57;101594.34;;;15.50;100.00
70407;BME280;57821;52.202;0.154;2023-05-07T08:20:24;101603.88;;;15.60;100.00
70407;BME280;57821;52.202;0.154;2023-05-07T08:22:51;101606.38;;;15.68;100.00
70407;BME280;57821;52.202;0.154;2023-05-07T08:25:19;101602.00;;;15.70;100.00
70407;BME280;57821;52.202;0.154;2023-05-07T08:27:46;101607.13;;;15.79;100.00
70407;BME280;57821;52.202;0.154;2023-05-07T08:30:14;101607.97;;;15.82;100.00
70407;BME280;57821;52.202;0.154;2023-05-07T08:32:42;101608.91;;;15.78;100.00
70407;BME280;57821;52.202;0.154;2023-05-07T08:35:09;101610.66;;;15.78;100.00
70407;BME280;57821;52.202;0.154;2023-05-07T08:37:35;101619.25;;;15.86;100.00
70407;BME280;57821;52.202;0.154;2023-05-07T08:40:02;101618.31;;;15.93;100.00
70407;BME280;57821;52.202;0.154;2023-05-07T08:42:35;101623.53;;;15.93;100.00
70407;BME280;57821;52.202;0.154;2023-05-07T08:45:04;101631.31;;;15.97;100.00
70407;BME280;57821;52.202;0.154;2023-05-07T08:47:40;101617.50;;;15.85;100.00
70407;BME280;57821;52.202;0.154;2023-05-07T08:50:09;101640.09;;;15.93;100.00
70407;BME280;57821;52.202;0.154;2023-05-07T08:52:36;101639.22;;;15.91;100.00
70407;BME280;57821;52.202;0.154;2023-05-07T08:55:03;101639.28;;;15.87;100.00
70407;BME280;57821;52.202;0.154;2023-05-07T08:57:31;101627.97;;;15.85;100.00
70407;BME280;57821;52.202;0.154;2023-05-07T08:59:59;101628.91;;;15.81;100.00
70407;BME280;57821;52.202;0.154;2023-05-07T09:02:27;101625.47;;;15.77;100.00
70407;BME280;57821;52.202;0.154;2023-05-07T09:04:54;101627.19;;;15.78;100.00
70407;BME280;57821;52.202;0.154;2023-05-07T09:07:22;101634.13;;;15.81;100.00
70407;BME280;57821;52.202;0.154;2023-05-07T09:09:48;101639.34;;;15.81;100.00
70407;BME280;57821;52.202;0.154;2023-05-07T09:12:15;101649.75;;;15.88;100.00
70407;BME280;57821;52.202;0.154;2023-05-07T09:14:41;101661.00;;;15.95;100.00
70407;BME280;57821;52.202;0.154;2023-05-07T09:17:08;101653.09;;;16.01;100.00
70407;BME280;57821;52.202;0.154;2023-05-07T09:19:35;101650.34;;;16.12;100.00
70407;BME280;57821;52.202;0.154;2023-05-07T09:22:05;101639.88;;;16.13;100.00
70407;BME280;57821;52.202;0.154;2023-05-07T09:24:48;101654.41;;;16.35;100.00
70407;BME280;57821;52.202;0.154;2023-05-07T09:27:15;101653.19;;;16.61;100.00
70407;BME280;57821;52.202;0.154;2023-05-07T09:29:44;101650.19;;;16.87;100.00
70407;BME280;57821;52.202;0.154;2023-05-07T09:32:12;101646.44;;;17.03;100.00
70407;BME280;57821;52.202;0.154;2023-05-07T09:34:39;101644.59;;;17.09;100.00
70407;BME280;57821;52.202;0.154;2023-05-07T09:37:06;101651.28;;;17.27;100.00
70407;BME280;57821;52.202;0.154;2023-05-07T09:42:08;101654.59;;;17.37;100.00
70407;BME280;57821;52.202;0.154;2023-05-07T09:44:35;101656.41;;;17.33;100.00
70407;BME280;57821;52.202;0.154;2023-05-07T09:47:05;101658.25;;;17.27;100.00
70407;BME280;57821;52.202;0.154;2023-05-07T09:49:39;101666.91;;;17.32;100.00
70407;BME280;57821;52.202;0.154;2023-05-07T09:52:09;101666.03;;;17.33;100.00
70407;BME280;57821;52.202;0.154;2023-05-07T09:54:41;101671.97;;;17.42;100.00
70407;BME280;57821;52.202;0.154;2023-05-07T09:57:10;101668.19;;;17.58;100.00
70407;BME280;57821;52.202;0.154;2023-05-07T09:59:42;101668.47;;;17.92;100.00
70407;BME280;57821;52.202;0.154;2023-05-07T10:02:14;101664.25;;;18.27;100.00
70407;BME280;57821;52.202;0.154;2023-05-07T10:04:48;101671.19;;;18.71;100.00
70407;BME280;57821;52.202;0.154;2023-05-07T10:07:18;101663.91;;;19.19;100.00
70407;BME280;57821;52.202;0.154;2023-05-07T10:09:46;101666.44;;;19.57;100.00
70407;BME280;57821;52.202;0.154;2023-05-07T10:12:24;101673.66;;;19.82;100.00
70407;BME280;57821;52.202;0.154;2023-05-07T10:14:52;101672.69;;;19.86;100.00
70407;BME280;57821;52.202;0.154;2023-05-07T10:17:20;101676.09;;;19.89;100.00
70407;BME280;57821;52.202;0.154;2023-05-07T10:19:49;101664.00;;;19.82;100.00
70407;BME280;57821;52.202;0.154;2023-05-07T10:22:17;101687.53;;;19.88;100.00
70407;BME280;57821;52.202;0.154;2023-05-07T10:24:48;101686.59;;;19.91;100.00
70407;BME280;57821;52.202;0.154;2023-05-07T10:27:17;101692.25;;;20.08;100.00
70407;BME280;57821;52.202;0.154;2023-05-07T10:29:55;101697.03;;;20.25;100.00
70407;BME280;57821;52.202;0.154;2023-05-07T10:35:17;101697.94;;;20.55;100.00
70407;BME280;57821;52.202;0.154;2023-05-07T10:37:48;101693.47;;;20.57;100.00
70407;BME280;57821;52.202;0.154;2023-05-07T10:40:15;101689.31;;;20.49;100.00
70407;BME280;57821;52.202;0.154;2023-05-07T10:42:58;101700.94;;;20.42;100.00
70407;BME280;57821;52.202;0.154;2023-05-07T10:45:29;101699.47;;;20.32;100.00
70407;BME280;57821;52.202;0.154;2023-05-07T10:48:27;101712.94;;;20.51;100.00
70407;BME280;57821;52.202;0.154;2023-05-07T10:51:20;101711.66;;;20.66;100.00
70407;BME280;57821;52.202;0.154;2023-05-07T10:56:44;101704.78;;;20.60;100.00
70407;BME280;57821;52.202;0.154;2023-05-07T11:01:54;101703.97;;;20.27;100.00
70407;BME280;57821;52.202;0.154;2023-05-07T11:04:37;101711.47;;;20.10;100.00
70407;BME280;57821;52.202;0.154;2023-05-07T11:07:30;101721.53;;;19.96;100.00
70407;BME280;57821;52.202;0.154;2023-05-07T11:10:08;101715.19;;;19.71;100.00
70407;BME280;57821;52.202;0.154;2023-05-07T11:13:01;101708.00;;;19.43;100.00
70407;BME280;57821;52.202;0.154;2023-05-07T11:15:40;101728.13;;;19.44;100.00
70407;BME280;57821;52.202;0.154;2023-05-07T11:18:17;101719.56;;;19.36;100.00
70407;BME280;57821;52.202;0.154;2023-05-07T11:26:29;101717.81;;;19.00;100.00
70407;BME280;57821;52.202;0.154;2023-05-07T11:28:56;101730.22;;;18.93;100.00
70407;BME280;57821;52.202;0.154;2023-05-07T11:31:26;101722.38;;;18.92;100.00
70407;BME280;57821;52.202;0.154;2023-05-07T11:33:55;101735.13;;;19.10;100.00
70407;BME280;57821;52.202;0.154;2023-05-07T11:36:22;101737.28;;;19.28;100.00
70407;BME280;57821;52.202;0.154;2023-05-07T11:38:52;101741.97;;;19.52;100.00
70407;BME280;57821;52.202;0.154;2023-05-07T11:41:19;101734.13;;;19.85;100.00
70407;BME280;57821;52.202;0.154;2023-05-07T11:43:56;101739.28;;;20.20;100.00
70407;BME280;57821;52.202;0.154;2023-05-07T11:46:23;101745.16;;;20.30;100.00
70407;BME280;57821;52.202;0.154;2023-05-07T11:48:50;101748.25;;;20.45;100.00
70407;BME280;57821;52.202;0.154;2023-05-07T11:51:24;101742.72;;;20.55;100.00
70407;BME280;57821;52.202;0.154;2023-05-07T11:53:52;101746.09;;;20.60;100.00
70407;BME280;57821;52.202;0.154;2023-05-07T11:56:19;101747.63;;;20.67;100.00
70407;BME280;57821;52.202;0.154;2023-05-07T11:58:47;101747.72;;;20.91;100.00
70407;BME280;57821;52.202;0.154;2023-05-07T12:01:14;101750.13;;;20.99;100.00
70407;BME280;57821;52.202;0.154;2023-05-07T12:03:42;101751.84;;;21.02;100.00
70407;BME280;57821;52.202;0.154;2023-05-07T12:06:10;101750.13;;;20.99;100.00
70407;BME280;57821;52.202;0.154;2023-05-07T12:08:38;101753.88;;;20.92;100.00
70407;BME280;57821;52.202;0.154;2023-05-07T12:13:55;101751.25;;;20.63;100.00
70407;BME280;57821;52.202;0.154;2023-05-07T12:16:26;101752.66;;;20.45;100.00
70407;BME280;57821;52.202;0.154;2023-05-07T12:18:53;101746.94;;;20.29;100.00
70407;BME280;57821;52.202;0.154;2023-05-07T12:21:20;101761.00;;;20.28;100.00
70407;BME280;57821;52.202;0.154;2023-05-07T12:23:47;101755.03;;;20.22;100.00
70407;BME280;57821;52.202;0.154;2023-05-07T12:26:14;101751.06;;;20.07;100.00
70407;BME280;57821;52.202;0.154;2023-05-07T12:28:40;101753.03;;;19.99;100.00
70407;BME280;57821;52.202;0.154;2023-05-07T12:31:07;101750.69;;;19.88;100.00
70407;BME280;57821;52.202;0.154;2023-05-07T12:33:34;101750.69;;;19.88;100.00
70407;BME280;57821;52.202;0.154;2023-05-07T12:36:08;101743.78;;;19.84;100.00
70407;BME280;57821;52.202;0.154;2023-05-07T12:38:36;101730.00;;;19.75;100.00
70407;BME280;57821;52.202;0.154;2023-05-07T12:41:03;101749.19;;;19.80;100.00
70407;BME280;57821;52.202;0.154;2023-05-07T12:43:30;101752.19;;;19.64;100.00
70407;BME280;57821;52.202;0.154;2023-05-07T12:46:02;101756.81;;;19.55;100.00
70407;BME280;57821;52.202;0.154;2023-05-07T12:48:29;101757.91;;;19.46;100.00
70407;BME280;57821;52.202;0.154;2023-05-07T12:50:57;101762.34;;;19.43;100.00
70407;BME280;57821;52.202;0.154;2023-05-07T12:53:25;101756.38;;;19.36;100.00
70407;BME280;57821;52.202;0.154;2023-05-07T12:55:54;101769.53;;;19.36;100.00
70407;BME280;57821;52.202;0.154;2023-05-07T12:58:30;101767.88;;;19.32;100.00
70407;BME280;57821;52.202;0.154;2023-05-07T13:01:00;101766.91;;;19.35;100.00
70407;BME280;57821;52.202;0.154;2023-05-07T13:03:32;101773.28;;;19.26;100.00
70407;BME280;57821;52.202;0.154;2023-05-07T13:06:03;101774.22;;;19.22;100.00
70407;BME280;57821;52.202;0.154;2023-05-07T13:08:32;101772.81;;;19.09;100.00